Time;durP1;ratioP1;P1;durP2;ratioP2;P2;SDS_P1;SDS_P2;PMS_P1;PMS_P2;Temp;Humidity;BMP_temperature;BMP_pressure;BME280_temperature;BME280_humidity;BME280_pressure;Samples;Min_cycle;Max_cycle;Signal;HPM_P1;HPM_P2
2023/10/05 00:05:08;;;;;;;10.48;3.30;;;;;;;10.45;100.00;101383.75;5590002;31;33841;-66
2023/10/05 00:08:11;;;;;;;5.32;2.97;;;;;;;10.67;100.00;101371.94;5589900;31;33835;-66
2023/10/05 00:11:22;;;;;;;9.02;3.20;;;;;;;10.79;100.00;101378.78;5576453;31;33825;-67
2023/10/05 00:14:25;;;;;;;6.25;3.30;;;;;;;10.76;100.00;101375.56;5589861;31;34591;-67
2023/10/05 00:17:29;;;;;;;7.10;3.03;;;;;;;10.71;100.00;101389.25;5589837;31;33845;-66
2023/10/05 00:20:38;;;;;;;6.40;3.10;;;;;;;10.58;100.00;101387.91;5589790;31;33792;-66
2023/10/05 00:23:41;;;;;;;6.30;3.00;;;;;;;10.51;100.00;101387.62;5589755;31;33882;-67
2023/10/05 00:26:44;;;;;;;7.20;3.08;;;;;;;10.50;100.00;101395.75;5590091;31;33888;-66
2023/10/05 00:29:53;;;;;;;8.73;3.12;;;;;;;10.45;100.00;101390.88;5589719;31;34433;-66
2023/10/05 00:32:59;;;;;;;6.72;3.30;;;;;;;10.37;100.00;101382.75;5589541;31;34758;-66
2023/10/05 00:36:05;;;;;;;6.68;3.15;;;;;;;10.39;100.00;101394.94;5589626;31;33941;-67
2023/10/05 00:39:09;;;;;;;7.40;3.28;;;;;;;10.51;100.00;101392.94;5589572;31;34722;-67
2023/10/05 00:42:12;;;;;;;8.23;3.08;;;;;;;10.64;100.00;101388.19;5589623;31;33806;-66
2023/10/05 00:45:16;;;;;;;7.70;3.20;;;;;;;10.86;100.00;101382.50;5589461;31;34511;-66
2023/10/05 00:48:34;;;;;;;7.18;3.10;;;;;;;10.90;100.00;101386.53;5576000;31;34550;-66
2023/10/05 00:51:38;;;;;;;5.90;3.08;;;;;;;11.02;100.00;101378.41;5589637;31;34052;-66
2023/10/05 00:54:56;;;;;;;7.78;2.90;;;;;;;10.99;100.00;101387.47;5589657;31;33917;-65
2023/10/05 00:57:59;;;;;;;6.03;3.20;;;;;;;11.02;100.00;101379.25;5589621;31;33961;-66
2023/10/05 01:01:07;;;;;;;6.32;3.10;;;;;;;11.04;100.00;101373.75;5589721;31;33844;-66
2023/10/05 01:07:27;;;;;;;6.25;3.05;;;;;;;11.02;100.00;101370.44;5589585;31;33950;-66
2023/10/05 01:10:42;;;;;;;7.30;3.12;;;;;;;11.11;100.00;101374.88;5588315;31;33710;-66
2023/10/05 01:13:48;;;;;;;5.65;3.20;;;;;;;10.92;100.00;101373.13;5589368;31;33772;-66
2023/10/05 01:16:54;;;;;;;8.32;3.28;;;;;;;10.78;100.00;101363.00;5589633;31;34429;-67
2023/10/05 01:20:08;;;;;;;7.50;3.40;;;;;;;10.76;100.00;101364.94;5589359;31;33812;-66
2023/10/05 01:23:11;;;;;;;7.15;3.60;;;;;;;10.79;100.00;101370.81;5589256;31;33964;-66
2023/10/05 01:26:14;;;;;;;8.82;4.00;;;;;;;10.55;100.00;101367.81;5589090;31;34475;-67
2023/10/05 01:29:17;;;;;;;9.63;4.43;;;;;;;10.36;100.00;101368.66;5589177;31;33950;-67
2023/10/05 01:32:20;;;;;;;8.45;4.00;;;;;;;10.20;100.00;101363.13;5575809;31;33216;-67
2023/10/05 01:35:23;;;;;;;10.27;4.00;;;;;;;10.16;100.00;101364.38;5589332;31;33656;-66
2023/10/05 01:38:28;;;;;;;10.50;3.60;;;;;;;10.07;100.00;101357.22;5589070;31;33493;-66
2023/10/05 01:41:30;;;;;;;6.12;3.80;;;;;;;10.03;100.00;101361.97;5589197;31;33810;-67
2023/10/05 01:44:37;;;;;;;7.50;3.67;;;;;;;10.05;100.00;101356.53;5588849;31;34386;-66
2023/10/05 01:47:39;;;;;;;10.13;4.43;;;;;;;10.07;100.00;101356.41;5589099;31;33770;-66
2023/10/05 01:50:44;;;;;;;9.68;4.82;;;;;;;10.06;100.00;101352.06;5589091;31;33856;-67
2023/10/05 01:53:51;;;;;;;11.30;4.90;;;;;;;10.06;100.00;101352.91;5588849;31;34041;-67
2023/10/05 01:57:01;;;;;;;8.75;4.78;;;;;;;9.98;100.00;101352.75;5588880;31;34552;-65
2023/10/05 02:00:13;;;;;;;6.25;4.40;;;;;;;9.91;100.00;101352.50;5588811;31;33964;-66
2023/10/05 02:03:23;;;;;;;12.82;4.85;;;;;;;9.83;100.00;101355.00;5589036;31;33910;-66
2023/10/05 02:06:28;;;;;;;8.25;4.78;;;;;;;9.75;100.00;101354.03;5574854;31;34246;-66
2023/10/05 02:09:31;;;;;;;11.48;5.00;;;;;;;9.66;100.00;101354.84;5588568;31;33995;-66
2023/10/05 02:12:35;;;;;;;10.15;4.82;;;;;;;9.63;100.00;101355.97;5588570;31;34016;-66
2023/10/05 02:15:39;;;;;;;9.32;4.70;;;;;;;9.56;100.00;101357.50;5588554;31;33893;-66
2023/10/05 02:18:43;;;;;;;9.60;4.78;;;;;;;9.42;100.00;101353.44;5588385;31;34829;-66
2023/10/05 02:21:46;;;;;;;7.62;4.70;;;;;;;9.38;100.00;101359.13;5589366;31;34480;-66
2023/10/05 02:24:51;;;;;;;8.32;4.70;;;;;;;9.29;100.00;101355.50;5590878;31;34863;-66
2023/10/05 02:27:55;;;;;;;10.80;5.00;;;;;;;9.25;100.00;101347.94;5590878;31;34514;-66
2023/10/05 02:30:59;;;;;;;12.25;5.25;;;;;;;9.16;100.00;101347.78;5590864;31;33911;-66
2023/10/05 02:34:05;;;;;;;9.65;4.78;;;;;;;9.16;100.00;101336.34;5590781;31;34488;-66
2023/10/05 02:37:12;;;;;;;11.63;5.37;;;;;;;9.13;100.00;101334.00;5590676;31;34027;-66
2023/10/05 02:40:15;;;;;;;7.62;4.70;;;;;;;9.08;100.00;101341.50;5590576;31;33780;-66
2023/10/05 02:43:18;;;;;;;10.70;5.15;;;;;;;9.01;100.00;101340.34;5590746;31;33872;-66
2023/10/05 02:46:24;;;;;;;8.93;5.30;;;;;;;9.00;100.00;101341.34;5590789;31;34199;-67
2023/10/05 02:49:28;;;;;;;8.75;5.32;;;;;;;8.98;100.00;101337.97;5590772;31;33962;-66
2023/10/05 02:52:34;;;;;;;9.27;5.10;;;;;;;8.94;100.00;101333.94;5590607;31;34560;-66
2023/10/05 02:55:37;;;;;;;7.62;5.25;;;;;;;8.92;100.00;101325.28;5591026;31;33915;-66
2023/10/05 02:58:40;;;;;;;11.02;5.62;;;;;;;8.90;100.00;101329.88;5576882;31;34126;-66
2023/10/05 03:01:43;;;;;;;9.10;4.80;;;;;;;8.90;100.00;101325.44;5590615;31;34460;-66
2023/10/05 03:04:56;;;;;;;8.57;4.85;;;;;;;8.94;100.00;101328.63;5590561;31;33937;-66
2023/10/05 03:07:59;;;;;;;9.10;4.78;;;;;;;8.97;100.00;101334.50;5590446;31;34820;-66
2023/10/05 03:11:07;;;;;;;9.50;5.50;;;;;;;8.98;100.00;101338.81;5590375;31;33741;-66
2023/10/05 03:14:10;;;;;;;10.98;5.60;;;;;;;8.97;100.00;101334.50;5590825;31;33782;-66
2023/10/05 03:17:17;;;;;;;10.10;5.53;;;;;;;8.99;100.00;101332.56;5576637;31;34664;-66
2023/10/05 03:20:22;;;;;;;12.85;5.85;;;;;;;8.99;100.00;101348.44;5576712;31;33872;-66
2023/10/05 03:23:26;;;;;;;11.77;5.62;;;;;;;9.07;100.00;101350.41;5590504;31;34950;-66
2023/10/05 03:26:29;;;;;;;9.50;5.90;;;;;;;9.09;100.00;101343.19;5590371;31;34204;-66
2023/10/05 03:29:38;;;;;;;9.60;5.50;;;;;;;9.07;100.00;101345.13;5590313;31;34063;-66
2023/10/05 03:32:41;;;;;;;9.60;5.82;;;;;;;9.04;100.00;101337.44;5589884;31;34506;-66
2023/10/05 03:35:45;;;;;;;8.57;5.72;;;;;;;9.30;100.00;101349.22;5590073;31;33837;-67
2023/10/05 03:38:57;;;;;;;8.98;5.22;;;;;;;9.28;100.00;101367.06;5576329;31;34681;-67
2023/10/05 03:42:00;;;;;;;8.25;5.50;;;;;;;9.24;100.00;101367.47;5590368;31;33901;-67
2023/10/05 03:45:08;;;;;;;9.68;5.55;;;;;;;9.21;100.00;101365.06;5576418;31;33800;-67
2023/10/05 03:48:11;;;;;;;9.05;5.50;;;;;;;9.21;100.00;101362.41;5570429;32;33935;-68
2023/10/05 03:51:17;;;;;;;8.73;5.47;;;;;;;9.13;100.00;101369.25;5570572;32;34213;-67
2023/10/05 03:54:24;;;;;;;11.88;5.62;;;;;;;9.08;100.00;101373.25;5570446;32;35239;-68
2023/10/05 03:57:31;;;;;;;9.88;5.20;;;;;;;9.06;100.00;101356.66;5570415;32;33904;-67
2023/10/05 04:00:37;;;;;;;8.98;5.30;;;;;;;9.04;100.00;101354.19;5570112;32;33924;-67
2023/10/05 04:03:40;;;;;;;10.73;5.22;;;;;;;9.04;100.00;101350.69;5570484;32;34036;-68
2023/10/05 04:06:44;;;;;;;11.40;5.60;;;;;;;9.05;100.00;101349.72;5570340;32;34493;-69
2023/10/05 04:09:48;;;;;;;7.18;4.87;;;;;;;9.02;100.00;101349.97;5570299;32;32896;-67
2023/10/05 04:12:51;;;;;;;8.00;5.15;;;;;;;9.13;100.00;101350.72;5570308;32;34016;-67
2023/10/05 04:15:55;;;;;;;7.82;4.60;;;;;;;9.34;100.00;101347.16;5570275;32;34489;-67
2023/10/05 04:18:58;;;;;;;7.78;4.62;;;;;;;9.25;100.00;101362.00;5570393;32;34513;-68
2023/10/05 04:22:02;;;;;;;8.57;4.40;;;;;;;9.23;100.00;101358.69;5556752;32;34226;-67
2023/10/05 04:25:05;;;;;;;7.78;4.60;;;;;;;9.14;100.00;101365.63;5570038;32;33923;-68
2023/10/05 04:28:08;;;;;;;7.55;4.60;;;;;;;9.12;100.00;101362.28;5570480;32;34541;-67
2023/10/05 04:31:14;;;;;;;9.27;4.80;;;;;;;9.05;100.00;101363.75;5556520;32;34777;-67
2023/10/05 04:34:21;;;;;;;8.18;4.68;;;;;;;9.11;100.00;101365.87;5570055;32;34936;-67
2023/10/05 04:37:25;;;;;;;9.70;4.82;;;;;;;9.30;100.00;101365.09;5569934;32;33983;-67
2023/10/05 04:40:33;;;;;;;8.57;4.97;;;;;;;9.44;100.00;101369.19;5569763;32;34098;-67
2023/10/05 04:43:38;;;;;;;9.82;4.68;;;;;;;9.51;100.00;101376.44;5569814;32;34082;-67
2023/10/05 04:46:48;;;;;;;7.65;4.60;;;;;;;9.53;100.00;101385.09;5580703;31;34568;-68
2023/10/05 04:49:52;;;;;;;9.07;4.70;;;;;;;9.53;100.00;101384.28;5590004;31;33876;-67
2023/10/05 04:52:58;;;;;;;10.07;5.40;;;;;;;9.46;100.00;101388.41;5589380;31;33986;-68
2023/10/05 04:56:11;;;;;;;7.60;4.93;;;;;;;9.44;100.00;101382.44;5589373;31;34463;-68
2023/10/05 05:02:47;;;;;;;7.95;4.32;;;;;;;9.52;100.00;101393.19;5589400;31;34780;-67
2023/10/05 05:09:12;;;;;;;7.93;4.35;;;;;;;9.50;100.00;101401.25;5589130;31;34005;-67
2023/10/05 05:12:18;;;;;;;9.82;4.53;;;;;;;9.47;100.00;101393.59;5589432;31;33968;-68
2023/10/05 05:15:21;;;;;;;12.85;4.05;;;;;;;9.39;100.00;101400.56;5589592;31;34521;-67
2023/10/05 05:18:24;;;;;;;6.15;4.20;;;;;;;9.28;100.00;101395.34;5575752;31;34143;-67
2023/10/05 05:21:27;;;;;;;7.78;4.57;;;;;;;9.20;100.00;101409.25;5589345;31;33624;-67
2023/10/05 05:24:31;;;;;;;8.20;4.53;;;;;;;9.12;100.00;101403.78;5575084;31;33799;-67
2023/10/05 05:27:34;;;;;;;8.85;4.60;;;;;;;9.08;100.00;101403.22;5589209;31;34068;-67
2023/10/05 05:30:39;;;;;;;10.20;4.78;;;;;;;9.08;100.00;101394.44;5562377;31;33944;-67
2023/10/05 05:33:44;;;;;;;11.45;4.65;;;;;;;9.04;100.00;101395.69;5574826;31;34570;-67
2023/10/05 05:36:47;;;;;;;8.43;5.18;;;;;;;9.01;100.00;101409.16;5588614;31;33817;-68
2023/10/05 05:39:49;;;;;;;10.48;4.70;;;;;;;9.13;100.00;101419.53;5588967;31;34482;-67
2023/10/05 05:42:54;;;;;;;10.82;4.68;;;;;;;9.46;100.00;101412.25;5588456;31;33985;-68
2023/10/05 05:45:58;;;;;;;11.68;5.40;;;;;;;9.46;100.00;101409.63;5588532;31;34607;-68
2023/10/05 05:49:06;;;;;;;11.32;4.70;;;;;;;9.47;100.00;101406.00;5588204;31;34119;-68
2023/10/05 05:52:12;;;;;;;9.57;4.80;;;;;;;9.50;100.00;101401.25;5588217;31;34502;-69
2023/10/05 05:55:17;;;;;;;14.45;5.03;;;;;;;9.57;100.00;101409.50;5574653;31;34849;-68
2023/10/05 05:58:20;;;;;;;11.55;5.18;;;;;;;9.66;100.00;101402.53;5588217;31;35315;-68
2023/10/05 06:01:23;;;;;;;14.82;5.45;;;;;;;9.84;100.00;101407.03;5588202;31;33907;-68
2023/10/05 06:04:28;;;;;;;13.73;4.68;;;;;;;9.95;100.00;101395.47;5588218;31;34505;-69
2023/10/05 06:07:31;;;;;;;17.10;5.18;;;;;;;9.99;100.00;101394.22;5587605;31;34071;-68
2023/10/05 06:10:35;;;;;;;13.55;4.32;;;;;;;9.97;100.00;101394.34;5588149;31;34647;-68
2023/10/05 06:13:38;;;;;;;12.18;5.00;;;;;;;10.10;100.00;101409.97;5587962;31;34903;-67
2023/10/05 06:16:41;;;;;;;10.80;5.10;;;;;;;10.14;100.00;101405.22;5588049;31;34704;-67
2023/10/05 06:19:44;;;;;;;9.40;4.93;;;;;;;10.13;100.00;101393.78;5588050;31;34023;-67
2023/10/05 06:22:49;;;;;;;10.40;4.47;;;;;;;10.19;100.00;101390.63;5574335;31;33838;-67
2023/10/05 06:25:53;;;;;;;9.90;4.37;;;;;;;10.33;100.00;101399.94;5588017;31;34425;-67
2023/10/05 06:28:56;;;;;;;10.02;4.20;;;;;;;10.42;100.00;101397.28;5587517;31;34525;-68
2023/10/05 06:32:00;;;;;;;7.87;4.20;;;;;;;10.43;100.00;101403.44;5588010;31;33767;-68
2023/10/05 06:35:13;;;;;;;8.77;4.00;;;;;;;10.46;100.00;101401.31;5574074;31;33895;-68
2023/10/05 06:38:16;;;;;;;9.80;4.20;;;;;;;10.68;100.00;101399.34;5587518;31;34466;-68
2023/10/05 06:41:22;;;;;;;10.40;3.70;;;;;;;10.76;100.00;101402.94;5587441;31;33925;-68
2023/10/05 06:44:25;;;;;;;14.48;4.57;;;;;;;10.78;100.00;101397.50;5573847;31;34290;-68
2023/10/05 06:47:37;;;;;;;8.73;3.95;;;;;;;10.87;100.00;101400.13;5587770;31;33950;-68
2023/10/05 06:50:41;;;;;;;15.98;4.30;;;;;;;10.96;100.00;101395.75;5587444;31;34514;-68
2023/10/05 06:53:46;;;;;;;12.98;4.18;;;;;;;11.04;100.00;101400.31;5587443;31;33866;-68
2023/10/05 06:56:49;;;;;;;15.48;4.45;;;;;;;11.05;100.00;101391.38;5587363;31;33847;-68
2023/10/05 06:59:55;;;;;;;10.68;4.70;;;;;;;11.24;100.00;101384.16;5587510;31;34246;-68
2023/10/05 07:02:58;;;;;;;15.05;4.40;;;;;;;11.28;100.00;101393.50;5587733;31;34408;-68
2023/10/05 07:06:05;;;;;;;13.23;4.72;;;;;;;11.47;100.00;101395.25;5587342;31;33861;-68
2023/10/05 07:09:11;;;;;;;9.57;4.37;;;;;;;11.63;100.00;101391.91;5588354;31;34567;-68
2023/10/05 07:12:14;;;;;;;8.32;4.72;;;;;;;11.74;100.00;101394.38;5590208;31;33829;-68
2023/10/05 07:15:17;;;;;;;9.38;4.68;;;;;;;11.86;100.00;101398.47;5589949;31;34059;-67
2023/10/05 07:18:21;;;;;;;8.35;4.70;;;;;;;12.02;100.00;101395.16;5590318;31;33796;-67
2023/10/05 07:21:24;;;;;;;8.95;5.15;;;;;;;12.18;100.00;101400.63;5589747;31;34595;-67
2023/10/05 07:24:29;;;;;;;10.77;4.50;;;;;;;12.39;100.00;101402.97;5590101;31;34064;-67
2023/10/05 07:27:31;;;;;;;11.20;4.00;;;;;;;12.64;100.00;101399.47;5590003;31;33799;-67
2023/10/05 07:30:35;;;;;;;8.95;4.30;;;;;;;12.77;100.00;101405.22;5576213;31;34557;-67
2023/10/05 07:33:37;;;;;;;9.55;3.65;;;;;;;13.89;100.00;101404.00;5590016;31;34083;-67
2023/10/05 07:36:41;;;;;;;9.48;3.58;;;;;;;15.24;100.00;101401.59;5576237;31;32621;-67
2023/10/05 07:39:44;;;;;;;10.15;3.67;;;;;;;17.27;100.00;101400.81;5589666;31;33981;-67
2023/10/05 07:42:47;;;;;;;10.23;3.60;;;;;;;18.33;93.04;101403.66;5590278;31;34517;-68
2023/10/05 07:45:50;;;;;;;11.75;4.00;;;;;;;18.95;92.43;101398.34;5589707;31;34215;-69
2023/10/05 07:48:53;;;;;;;9.07;3.20;;;;;;;21.01;73.60;101401.28;5589838;31;33858;-68
2023/10/05 07:51:56;;;;;;;10.25;3.72;;;;;;;22.25;62.95;101399.87;5589682;31;33930;-70
2023/10/05 07:54:59;;;;;;;7.87;3.37;;;;;;;23.23;58.85;101400.00;5589823;31;33932;-70
2023/10/05 07:58:03;;;;;;;8.52;3.05;;;;;;;21.76;57.82;101403.28;5576004;31;34489;-70
2023/10/05 08:01:06;;;;;;;11.38;3.45;;;;;;;23.70;53.26;101411.94;5589855;31;34299;-70
2023/10/05 08:04:11;;;;;;;8.18;2.97;;;;;;;23.68;51.49;101412.16;5589423;31;34213;-68
2023/10/05 08:07:15;;;;;;;8.75;3.20;;;;;;;24.10;49.14;101417.63;5589814;31;34930;-68
2023/10/05 08:10:19;;;;;;;12.13;2.90;;;;;;;23.66;49.79;101417.00;5576059;31;34545;-68
2023/10/05 08:13:23;;;;;;;9.00;2.75;;;;;;;23.58;48.96;101413.75;5589737;31;34186;-69
2023/10/05 08:16:28;;;;;;;11.20;3.00;;;;;;;25.82;44.45;101413.44;5589422;31;34043;-69
2023/10/05 08:19:30;;;;;;;5.47;2.40;;;;;;;26.49;41.72;101413.53;5589085;31;33861;-69
2023/10/05 08:22:34;;;;;;;10.68;2.60;;;;;;;25.48;42.46;101416.00;5589287;31;33762;-69
2023/10/05 08:25:39;;;;;;;4.03;2.30;;;;;;;26.14;40.67;101405.59;5589187;31;34430;-70
2023/10/05 08:28:48;;;;;;;9.02;2.72;;;;;;;23.01;47.07;101399.63;5589582;31;33849;-70
2023/10/05 08:31:52;;;;;;;6.72;2.60;;;;;;;23.50;47.24;101403.25;5589131;31;34489;-70
2023/10/05 08:34:55;;;;;;;9.10;2.47;;;;;;;21.97;49.89;101402.16;5589087;31;35246;-68
2023/10/05 08:37:59;;;;;;;8.43;2.37;;;;;;;21.28;52.43;101391.25;5589253;31;33803;-69
2023/10/05 08:41:11;;;;;;;7.57;2.00;;;;;;;20.34;55.63;101388.91;5589541;31;33920;-68
2023/10/05 08:44:26;;;;;;;17.98;2.62;;;;;;;18.88;59.57;101388.59;5589178;31;33243;-67
2023/10/05 08:47:30;;;;;;;5.95;2.22;;;;;;;18.29;61.84;101385.44;5588615;31;34274;-67
2023/10/05 08:50:35;;;;;;;6.62;1.77;;;;;;;17.89;62.60;101390.44;5588840;31;34830;-67
2023/10/05 08:53:49;;;;;;;9.50;2.10;;;;;;;17.44;60.17;101388.00;5575079;31;33752;-68
2023/10/05 08:56:52;;;;;;;12.35;2.30;;;;;;;17.44;61.75;101380.78;5589040;31;33955;-68
2023/10/05 08:59:55;;;;;;;6.30;2.03;;;;;;;17.42;64.68;101385.53;5589017;31;34933;-67
2023/10/05 09:02:58;;;;;;;9.80;2.20;;;;;;;17.18;65.71;101383.16;5588949;31;33996;-68
2023/10/05 09:06:13;;;;;;;8.98;2.30;;;;;;;17.09;70.97;101382.41;5589121;31;33823;-68
2023/10/05 09:09:28;;;;;;;6.62;2.30;;;;;;;17.07;67.06;101373.75;5589000;31;34242;-68
2023/10/05 09:12:35;;;;;;;11.20;2.58;;;;;;;16.88;72.12;101371.63;5575379;31;34515;-68
2023/10/05 09:15:50;;;;;;;10.77;2.80;;;;;;;17.04;68.79;101373.28;5588935;31;34730;-69
2023/10/05 09:18:53;;;;;;;10.35;2.60;;;;;;;17.18;67.52;101362.53;5588851;31;34652;-68
2023/10/05 09:25:09;;;;;;;6.07;2.80;;;;;;;17.14;67.59;101357.72;5588817;31;33774;-69
2023/10/05 09:28:13;;;;;;;12.32;3.05;;;;;;;17.19;66.59;101355.31;5588992;31;33911;-68
2023/10/05 09:31:19;;;;;;;7.03;2.87;;;;;;;17.33;64.70;101355.28;5587760;31;33781;-68
2023/10/05 09:34:34;;;;;;;8.25;2.60;;;;;;;17.42;63.52;101347.16;5588888;31;33854;-68
2023/10/05 09:37:39;;;;;;;87.90;5.20;;;;;;;17.54;63.62;101343.78;5588556;31;33811;-68
2023/10/05 09:40:46;;;;;;;11.88;2.90;;;;;;;17.62;63.46;101345.56;5588601;31;33746;-68
2023/10/05 09:44:00;;;;;;;16.37;3.15;;;;;;;17.79;62.47;101342.41;5588684;31;34510;-68
2023/10/05 09:47:08;;;;;;;11.70;3.17;;;;;;;18.02;61.98;101344.91;5588631;31;34531;-68
2023/10/05 09:50:13;;;;;;;10.43;2.85;;;;;;;17.86;63.34;101334.44;5562417;31;34170;-68
2023/10/05 09:53:19;;;;;;;5.65;2.70;;;;;;;18.02;62.51;101333.31;5590257;31;33837;-66
2023/10/05 09:56:25;;;;;;;8.25;2.87;;;;;;;18.30;60.67;101320.75;5589067;31;34473;-67
2023/10/05 09:59:57;;;;;;;9.55;3.08;;;;;;;18.39;60.28;101324.16;5588609;31;33760;-67
2023/10/05 10:03:01;;;;;;;9.32;2.30;;;;;;;18.52;61.31;101321.53;5574977;31;34501;-66
2023/10/05 10:06:10;;;;;;;11.80;2.80;;;;;;;18.82;56.95;101324.84;5575578;31;33754;-66
2023/10/05 10:09:13;;;;;;;6.40;2.97;;;;;;;18.97;56.25;101329.09;5588697;31;34042;-67
2023/10/05 10:12:31;;;;;;;6.57;2.72;;;;;;;19.24;57.25;101319.25;5588200;31;34018;-67
2023/10/05 10:15:34;;;;;;;5.22;2.72;;;;;;;19.53;54.96;101310.88;5587956;31;34233;-68
2023/10/05 10:18:38;;;;;;;9.55;3.22;;;;;;;19.81;53.35;101304.50;5588306;31;33836;-66
2023/10/05 10:21:42;;;;;;;8.88;2.80;;;;;;;20.06;51.59;101310.09;5575644;31;34193;-68
2023/10/05 10:24:45;;;;;;;6.82;2.80;;;;;;;20.33;51.12;101309.91;5587719;31;34441;-66
2023/10/05 10:27:50;;;;;;;8.30;2.90;;;;;;;20.44;48.56;101305.75;5574227;31;34038;-66
2023/10/05 10:31:18;;;;;;;7.60;2.55;;;;;;;20.53;48.50;101299.09;5588840;31;33948;-67
2023/10/05 10:34:49;;;;;;;9.13;2.72;;;;;;;20.79;48.09;101288.25;5588045;31;34129;-67
2023/10/05 10:37:59;;;;;;;9.05;2.60;;;;;;;21.46;44.76;101286.94;5587634;31;34539;-67
2023/10/05 10:41:09;;;;;;;7.87;2.60;;;;;;;21.55;45.30;101282.91;5587881;31;33791;-68
2023/10/05 10:44:21;;;;;;;13.65;3.30;;;;;;;21.83;45.91;101274.44;5589465;31;33871;-68
2023/10/05 10:47:27;;;;;;;4.82;2.50;;;;;;;21.81;45.18;101264.88;5590087;31;34698;-69
2023/10/05 10:50:30;;;;;;;7.80;2.83;;;;;;;21.00;45.82;101257.47;5576717;31;35329;-68
2023/10/05 10:53:37;;;;;;;6.00;2.25;;;;;;;21.27;45.91;101246.56;5590656;31;34131;-67
2023/10/05 10:56:44;;;;;;;7.25;2.40;;;;;;;21.44;45.01;101248.53;5590377;31;34008;-67
2023/10/05 10:59:46;;;;;;;5.60;2.28;;;;;;;22.79;41.92;101247.72;5590190;31;33899;-67
2023/10/05 11:02:49;;;;;;;7.65;2.40;;;;;;;24.96;38.39;101254.16;5589975;31;33882;-67
2023/10/05 11:05:57;;;;;;;7.80;2.17;;;;;;;27.32;32.99;101251.81;5590094;31;32525;-68
2023/10/05 11:09:09;;;;;;;7.75;2.30;;;;;;;29.58;29.18;101245.22;5590657;31;33727;-68
2023/10/05 11:12:23;;;;;;;3.55;2.20;;;;;;;29.79;28.83;101244.94;5590139;31;34574;-69
2023/10/05 11:15:30;;;;;;;7.22;2.65;;;;;;;30.22;27.81;101235.31;5576447;31;33909;-69
2023/10/05 11:18:40;;;;;;;6.10;2.83;;;;;;;31.45;26.92;101236.41;5575953;31;33909;-69
2023/10/05 11:21:45;;;;;;;5.10;2.03;;;;;;;31.84;25.93;101228.97;5589551;31;34554;-70
2023/10/05 11:25:23;;;;;;;7.97;2.30;;;;;;;29.90;27.66;101215.69;5589259;31;34060;-69
2023/10/05 11:28:27;;;;;;;9.52;2.35;;;;;;;29.12;28.80;101209.59;5589461;31;34536;-69
2023/10/05 11:31:34;;;;;;;3.72;2.35;;;;;;;31.66;26.45;101215.16;5589650;31;34186;-69
2023/10/05 11:35:04;;;;;;;4.28;2.30;;;;;;;31.16;26.47;101206.19;5578514;31;34988;-70
2023/10/05 11:38:26;;;;;;;9.85;2.62;;;;;;;30.33;27.39;101206.00;5577709;31;33972;-70
2023/10/05 11:41:30;;;;;;;6.07;2.33;;;;;;;32.86;24.93;101203.94;5589827;31;33975;-71
2023/10/05 11:44:33;;;;;;;6.62;1.98;;;;;;;34.40;23.60;101197.19;5576256;31;34515;-70
2023/10/05 11:47:36;;;;;;;5.32;1.75;;;;;;;38.11;19.90;101194.72;5589525;31;32081;-69
2023/10/05 11:50:52;;;;;;;5.00;2.03;;;;;;;38.75;19.40;101189.00;5588944;31;34884;-69
2023/10/05 11:53:58;;;;;;;8.38;2.12;;;;;;;39.91;18.18;101189.72;5587967;31;33972;-70
2023/10/05 11:57:04;;;;;;;3.78;1.70;;;;;;;38.63;18.51;101172.31;5589134;31;34745;-70
2023/10/05 12:00:08;;;;;;;5.35;1.92;;;;;;;36.81;19.88;101168.38;5589213;31;33856;-70
2023/10/05 12:03:12;;;;;;;4.95;1.85;;;;;;;36.56;20.52;101163.59;5589459;31;34055;-70
2023/10/05 12:06:23;;;;;;;3.20;1.70;;;;;;;37.70;19.25;101164.91;5589750;31;33762;-69
2023/10/05 12:09:35;;;;;;;5.35;1.80;;;;;;;34.37;22.34;101153.72;5589430;31;34607;-69
2023/10/05 12:12:43;;;;;;;3.60;1.70;;;;;;;35.34;20.87;101154.28;5589887;31;33947;-69
2023/10/05 12:15:47;;;;;;;2.60;1.58;;;;;;;37.51;19.00;101156.13;5589671;31;33801;-69
2023/10/05 12:18:51;;;;;;;3.17;1.60;;;;;;;39.55;17.84;101159.09;5589991;31;34596;-69
2023/10/05 12:21:55;;;;;;;3.33;1.77;;;;;;;36.59;19.71;101152.72;5589764;31;34456;-67
2023/10/05 12:24:59;;;;;;;5.03;1.95;;;;;;;36.19;19.99;101156.69;5575994;31;33941;-69
2023/10/05 12:28:02;;;;;;;2.60;1.45;;;;;;;32.64;23.23;101143.22;5589641;31;34197;-70
2023/10/05 12:31:06;;;;;;;3.08;1.70;;;;;;;32.15;24.53;101129.84;5589648;31;33913;-69
2023/10/05 12:34:14;;;;;;;7.37;2.17;;;;;;;29.59;27.66;101113.66;5589704;31;34003;-68
2023/10/05 12:37:31;;;;;;;6.40;1.98;;;;;;;27.60;29.86;101105.16;5589505;31;33799;-68
2023/10/05 12:40:34;;;;;;;4.22;2.30;;;;;;;26.24;32.47;101104.66;5589504;31;34469;-67
2023/10/05 12:43:37;;;;;;;3.85;2.08;;;;;;;25.46;33.84;101105.69;5589336;31;33961;-69
2023/10/05 12:46:41;;;;;;;5.18;1.90;;;;;;;24.83;34.12;101097.00;5589564;31;34499;-67
2023/10/05 12:49:45;;;;;;;3.03;2.05;;;;;;;23.34;36.25;101095.97;5589345;31;33912;-68
2023/10/05 12:52:50;;;;;;;5.35;2.10;;;;;;;23.33;38.17;101100.53;5589453;31;34068;-68
2023/10/05 12:55:56;;;;;;;3.30;1.80;;;;;;;22.80;37.47;101089.72;5589262;31;34591;-67
2023/10/05 12:59:03;;;;;;;3.92;2.12;;;;;;;22.62;38.41;101091.66;5589422;31;34061;-67
2023/10/05 13:02:15;;;;;;;6.05;2.22;;;;;;;22.68;38.56;101085.31;5589177;31;33803;-68
2023/10/05 13:05:31;;;;;;;6.50;2.08;;;;;;;22.54;39.04;101084.69;5588834;31;34496;-68
2023/10/05 13:08:43;;;;;;;7.07;2.20;;;;;;;22.39;39.35;101079.69;5563707;31;33931;-68
2023/10/05 13:11:47;;;;;;;;;;;;;;;22.20;39.98;101079.94;5589245;31;33775;-66
2023/10/05 13:14:50;;;;;;;4.40;1.90;;;;;;;21.81;40.98;101073.91;5589242;31;34054;-67
2023/10/05 13:17:56;;;;;;;3.97;1.98;;;;;;;21.81;41.40;101071.22;5589035;31;34530;-68
2023/10/05 13:20:59;;;;;;;7.25;2.20;;;;;;;21.92;41.65;101058.84;5589083;31;33960;-67
2023/10/05 13:24:03;;;;;;;5.72;2.10;;;;;;;21.97;42.37;101056.31;5588846;31;34566;-67
2023/10/05 13:27:07;;;;;;;3.67;2.10;;;;;;;21.88;41.46;101060.34;5588379;31;33938;-67
2023/10/05 13:30:17;;;;;;;9.10;1.95;;;;;;;22.05;41.51;101051.44;5588687;31;34655;-67
2023/10/05 13:33:28;;;;;;;11.10;2.47;;;;;;;22.13;41.64;101053.00;5588439;31;34117;-68
2023/10/05 13:36:33;;;;;;;4.97;1.90;;;;;;;22.38;41.90;101053.69;5588568;31;34804;-66
2023/10/05 13:39:36;;;;;;;6.00;2.00;;;;;;;22.23;41.01;101045.16;5574634;31;33891;-68
2023/10/05 13:42:40;;;;;;;5.35;2.25;;;;;;;22.10;41.88;101051.56;5588178;31;35052;-68
2023/10/05 13:45:45;;;;;;;8.90;2.50;;;;;;;22.40;41.76;101046.19;5574425;31;33796;-67
2023/10/05 13:48:53;;;;;;;4.00;1.92;;;;;;;22.42;41.16;101045.94;5588872;31;34030;-67
2023/10/05 13:51:58;;;;;;;;;;;;;;;22.34;41.53;101049.81;5588635;31;33881;-67
2023/10/05 13:55:02;;;;;;;4.15;2.22;;;;;;;22.28;42.19;101053.41;5588417;31;33967;-68
2023/10/05 13:58:05;;;;;;;6.25;2.22;;;;;;;21.68;42.78;101038.97;5588201;31;34715;-66
2023/10/05 14:01:15;;;;;;;4.93;2.30;;;;;;;21.60;43.71;101041.94;5587908;31;34210;-68
2023/10/05 14:04:23;;;;;;;13.55;2.60;;;;;;;21.78;43.39;101043.84;5588141;31;34101;-67
2023/10/05 14:07:26;;;;;;;6.53;1.90;;;;;;;21.67;44.54;101038.13;5574192;31;34485;-67
2023/10/05 14:10:29;;;;;;;8.60;2.20;;;;;;;21.62;44.71;101023.66;5587668;31;33882;-67
2023/10/05 14:13:32;;;;;;;3.97;2.35;;;;;;;21.64;45.74;101027.75;5587728;31;33862;-66
2023/10/05 14:16:50;;;;;;;4.25;2.12;;;;;;;21.69;46.97;101022.50;5587621;31;34280;-68
2023/10/05 14:19:54;;;;;;;4.43;2.53;;;;;;;21.32;46.55;101023.53;5589729;31;34027;-66
2023/10/05 14:23:00;;;;;;;6.43;2.47;;;;;;;21.21;47.16;101017.00;5575847;31;34126;-67
2023/10/05 14:26:03;;;;;;;16.10;3.12;;;;;;;21.17;48.25;101018.50;5590052;31;33554;-67
2023/10/05 14:29:06;;;;;;;11.38;2.37;;;;;;;21.15;48.94;101011.69;5576470;31;34078;-67
2023/10/05 14:32:09;;;;;;;43.97;3.62;;;;;;;21.03;49.40;101018.78;5589747;31;34143;-67
2023/10/05 14:35:15;;;;;;;9.40;2.20;;;;;;;20.92;49.69;101014.94;5590022;31;34008;-67
2023/10/05 14:38:19;;;;;;;15.32;2.92;;;;;;;20.87;49.87;101022.03;5589883;31;33916;-67